createdAt,value
2018-12-21T00:00:45.091Z,7.90
2018-12-21T00:03:12.589Z,8.00
2018-12-21T00:05:40.121Z,8.00
2018-12-21T00:08:07.679Z,8.10
2018-12-21T00:10:35.162Z,8.20
2018-12-21T00:13:02.652Z,8.20
2018-12-21T00:15:30.136Z,8.30
2018-12-21T00:17:57.628Z,8.10
2018-12-21T00:20:25.154Z,8.00
2018-12-21T00:22:52.649Z,8.10
2018-12-21T00:25:20.278Z,8.10
2018-12-21T00:27:47.859Z,8.10
2018-12-21T00:30:20.861Z,8.00
2018-12-21T00:32:54.119Z,7.90
2018-12-21T00:35:27.422Z,8.00
2018-12-21T00:38:00.625Z,8.00
2018-12-21T00:40:33.808Z,7.90
2018-12-21T00:43:06.162Z,8.00
2018-12-21T00:45:38.529Z,8.00
2018-12-21T00:48:06.048Z,8.00
2018-12-21T00:50:33.606Z,8.10
2018-12-21T00:53:01.101Z,8.10
2018-12-21T00:55:28.776Z,8.00
2018-12-21T00:57:56.248Z,8.00
2018-12-21T01:00:25.602Z,7.90
2018-12-21T01:02:53.124Z,7.80
2018-12-21T01:05:21.821Z,7.80
2018-12-21T01:07:49.519Z,7.80
2018-12-21T01:10:17.063Z,7.80
2018-12-21T01:12:44.577Z,7.80
2018-12-21T01:15:12.319Z,7.90
2018-12-21T01:17:39.949Z,7.90
2018-12-21T01:20:08.050Z,7.90
2018-12-21T01:22:35.564Z,7.90
2018-12-21T01:25:03.274Z,8.10
2018-12-21T01:27:30.756Z,8.20
2018-12-21T01:29:58.230Z,8.20
2018-12-21T01:32:25.710Z,8.20
2018-12-21T01:34:53.211Z,8.20
2018-12-21T01:37:20.844Z,8.20
2018-12-21T01:39:48.366Z,8.20
2018-12-21T01:42:15.962Z,8.20
2018-12-21T01:44:43.440Z,8.20
2018-12-21T01:47:10.888Z,8.20
2018-12-21T01:49:38.344Z,8.10
2018-12-21T01:52:05.851Z,8.10
2018-12-21T01:54:33.327Z,8.10
2018-12-21T01:57:00.862Z,8.10
2018-12-21T01:59:28.381Z,8.10
2018-12-21T02:01:56.084Z,8.00
2018-12-21T02:04:23.622Z,8.00
2018-12-21T02:06:51.138Z,8.00
2018-12-21T02:09:18.615Z,8.00
2018-12-21T02:11:46.099Z,8.00
2018-12-21T02:14:13.747Z,8.00
2018-12-21T02:16:41.239Z,8.00
2018-12-21T02:19:08.720Z,8.00
2018-12-21T02:21:36.419Z,8.00
2018-12-21T02:24:03.995Z,8.00
2018-12-21T02:26:31.495Z,8.00
2018-12-21T02:28:59.167Z,8.00
2018-12-21T02:31:26.685Z,7.90
2018-12-21T02:33:54.182Z,7.90
2018-12-21T02:36:21.663Z,7.90
2018-12-21T02:38:49.142Z,7.90
2018-12-21T02:41:16.650Z,7.90
2018-12-21T02:43:44.147Z,7.90
2018-12-21T02:46:11.658Z,7.90
2018-12-21T02:48:39.121Z,7.90
2018-12-21T02:51:06.637Z,7.80
2018-12-21T02:53:34.078Z,7.80
2018-12-21T02:56:01.543Z,7.80
2018-12-21T02:58:29.079Z,7.80
2018-12-21T03:00:56.610Z,7.80
2018-12-21T03:03:24.106Z,7.80
2018-12-21T03:05:51.605Z,7.80
2018-12-21T03:08:19.083Z,7.80
2018-12-21T03:10:46.566Z,7.80
2018-12-21T03:13:14.050Z,7.70
2018-12-21T03:15:41.523Z,7.80
2018-12-21T03:18:09.145Z,7.90
2018-12-21T03:20:36.595Z,7.90
2018-12-21T03:23:04.122Z,7.80
2018-12-21T03:25:31.627Z,7.70
2018-12-21T03:27:59.160Z,7.70
2018-12-21T03:30:26.613Z,7.70
2018-12-21T03:32:54.083Z,7.80
2018-12-21T03:35:21.702Z,7.90
2018-12-21T03:37:49.221Z,7.90
2018-12-21T03:40:16.821Z,7.90
2018-12-21T03:42:44.321Z,7.90
2018-12-21T03:45:11.832Z,7.90
2018-12-21T03:47:39.307Z,8.00
2018-12-21T03:50:06.997Z,8.00
2018-12-21T03:52:34.594Z,8.00
2018-12-21T03:55:02.045Z,7.90
2018-12-21T03:57:29.513Z,7.90
2018-12-21T03:59:56.952Z,7.90
2018-12-21T04:02:24.445Z,7.90
2018-12-21T04:04:51.893Z,7.80
2018-12-21T04:07:19.343Z,7.90
2018-12-21T04:09:46.783Z,7.80
2018-12-21T04:12:14.264Z,7.60
2018-12-21T04:14:41.875Z,7.60
2018-12-21T04:17:09.440Z,7.60
2018-12-21T04:19:36.923Z,7.80
2018-12-21T04:22:04.398Z,7.80
2018-12-21T04:24:31.914Z,7.90
2018-12-21T04:26:59.378Z,8.10
2018-12-21T04:29:26.837Z,8.10
2018-12-21T04:31:54.409Z,8.20
2018-12-21T04:34:21.914Z,8.20
2018-12-21T04:36:49.413Z,8.20
2018-12-21T04:39:16.937Z,8.10
2018-12-21T04:41:44.459Z,8.00
2018-12-21T04:44:11.947Z,8.10
2018-12-21T04:46:39.438Z,8.20
2018-12-21T04:49:06.868Z,8.10
2018-12-21T04:51:34.391Z,8.10
2018-12-21T04:54:02.082Z,8.00
2018-12-21T04:56:29.613Z,8.10
2018-12-21T04:58:57.098Z,8.10
2018-12-21T05:01:24.634Z,8.10
2018-12-21T05:03:52.149Z,8.10
2018-12-21T05:06:20.629Z,8.20
2018-12-21T05:08:48.175Z,8.20
2018-12-21T05:11:15.662Z,8.00
2018-12-21T05:13:43.208Z,7.90
2018-12-21T05:16:10.679Z,8.00
2018-12-21T05:18:38.213Z,8.10
2018-12-21T05:21:05.753Z,7.90
2018-12-21T05:23:33.217Z,7.80
2018-12-21T05:26:00.687Z,7.60
2018-12-21T05:28:28.163Z,7.50
2018-12-21T05:30:55.599Z,7.30
2018-12-21T05:33:23.090Z,7.40
2018-12-21T05:35:50.561Z,7.50
2018-12-21T05:38:18.039Z,7.60
2018-12-21T05:40:45.526Z,7.50
2018-12-21T05:43:13.080Z,7.70
2018-12-21T05:45:40.651Z,7.80
2018-12-21T05:48:08.183Z,7.80
2018-12-21T05:50:35.669Z,7.80
2018-12-21T05:53:03.189Z,7.70
2018-12-21T05:55:30.715Z,7.80
2018-12-21T05:57:58.311Z,7.80
2018-12-21T06:00:25.765Z,7.60
2018-12-21T06:02:53.254Z,7.70
2018-12-21T06:05:20.804Z,7.60
2018-12-21T06:07:48.344Z,7.80
2018-12-21T06:10:15.863Z,7.80
2018-12-21T06:12:43.380Z,7.90
2018-12-21T06:15:10.905Z,7.80
2018-12-21T06:17:38.494Z,7.90
2018-12-21T06:20:06.263Z,7.90
2018-12-21T06:22:33.793Z,7.80
2018-12-21T06:25:01.383Z,7.80
2018-12-21T06:27:28.944Z,7.80
2018-12-21T06:29:56.419Z,7.80
2018-12-21T06:32:23.887Z,7.80
2018-12-21T06:34:51.323Z,8.00
2018-12-21T06:37:18.801Z,8.10
2018-12-21T06:39:46.387Z,8.10
2018-12-21T06:42:13.921Z,8.00
2018-12-21T06:44:41.430Z,8.00
2018-12-21T06:47:09.066Z,7.90
2018-12-21T06:49:36.567Z,7.70
2018-12-21T06:52:04.073Z,7.80
2018-12-21T06:54:31.560Z,7.90
2018-12-21T06:56:59.076Z,8.10
2018-12-21T06:59:26.618Z,8.40
2018-12-21T07:01:54.124Z,8.30
2018-12-21T07:04:21.589Z,8.40
2018-12-21T07:06:49.073Z,8.50
2018-12-21T07:09:16.565Z,8.50
2018-12-21T07:11:44.065Z,8.70
2018-12-21T07:14:11.675Z,8.70
2018-12-21T07:16:39.136Z,8.70
2018-12-21T07:19:06.648Z,8.80
2018-12-21T07:21:36.042Z,8.80
2018-12-21T07:24:03.587Z,8.90
2018-12-21T07:26:31.113Z,8.50
2018-12-21T07:28:58.632Z,8.60
2018-12-21T07:31:26.163Z,8.50
2018-12-21T07:33:53.728Z,8.50
2018-12-21T07:36:21.221Z,8.60
2018-12-21T07:38:48.798Z,8.50
2018-12-21T07:41:16.353Z,8.40
2018-12-21T07:43:43.842Z,8.50
2018-12-21T07:46:11.498Z,8.60
2018-12-21T07:48:38.958Z,8.30
2018-12-21T07:51:06.469Z,8.20
2018-12-21T07:53:36.068Z,8.20
2018-12-21T07:56:10.189Z,8.10
2018-12-21T07:58:37.710Z,8.30
2018-12-21T08:01:05.287Z,8.10
2018-12-21T08:03:32.889Z,8.20
2018-12-21T08:06:00.380Z,8.20
2018-12-21T08:08:27.910Z,8.30
2018-12-21T08:10:55.553Z,8.30
2018-12-21T08:13:23.086Z,8.20
2018-12-21T08:15:50.612Z,8.30
2018-12-21T08:18:18.146Z,8.30
2018-12-21T08:20:45.689Z,8.20
2018-12-21T08:23:13.243Z,8.40
2018-12-21T08:25:40.817Z,8.30
2018-12-21T08:28:08.341Z,8.20
2018-12-21T08:30:35.823Z,8.20
2018-12-21T08:33:03.392Z,8.10
2018-12-21T08:35:30.885Z,8.30
2018-12-21T08:37:58.384Z,8.20
2018-12-21T08:40:25.959Z,8.00
2018-12-21T08:42:53.476Z,8.00
2018-12-21T08:45:21.012Z,7.90
2018-12-21T08:47:48.543Z,8.00
2018-12-21T08:50:16.075Z,8.10
2018-12-21T08:52:43.556Z,8.20
2018-12-21T08:55:11.967Z,8.00
2018-12-21T08:57:39.934Z,8.10
2018-12-21T09:00:10.281Z,8.10
2018-12-21T09:02:37.808Z,8.10
2018-12-21T09:05:05.694Z,8.10
2018-12-21T09:07:33.233Z,8.20
2018-12-21T09:10:00.754Z,8.10
2018-12-21T09:12:28.280Z,8.20
2018-12-21T09:14:55.775Z,8.20
2018-12-21T09:17:23.366Z,8.30
2018-12-21T09:19:50.820Z,8.30
2018-12-21T09:22:18.338Z,8.30
2018-12-21T09:24:45.886Z,8.20
2018-12-21T09:27:13.411Z,8.30
2018-12-21T09:29:40.957Z,8.20
2018-12-21T09:32:08.489Z,8.10
2018-12-21T09:34:36.145Z,8.10
2018-12-21T09:37:03.808Z,8.10
2018-12-21T09:39:31.313Z,8.10
2018-12-21T09:41:58.878Z,8.20
2018-12-21T09:44:26.414Z,8.20
2018-12-21T09:46:53.970Z,8.20
2018-12-21T09:49:21.469Z,8.20
2018-12-21T09:51:48.959Z,8.10
2018-12-21T09:54:17.206Z,8.10
2018-12-21T09:56:44.719Z,7.90
2018-12-21T09:59:12.244Z,7.80
2018-12-21T10:01:39.779Z,7.80
2018-12-21T10:04:07.261Z,7.90
2018-12-21T10:06:34.747Z,7.60
2018-12-21T10:09:02.722Z,7.50
2018-12-21T10:11:30.240Z,7.40
2018-12-21T10:13:57.742Z,7.50
2018-12-21T10:16:25.270Z,7.50
2018-12-21T10:18:52.841Z,7.60
2018-12-21T10:21:20.334Z,7.60
2018-12-21T10:23:47.865Z,7.50
2018-12-21T10:26:15.420Z,7.40
2018-12-21T10:28:42.922Z,7.40
2018-12-21T10:31:10.394Z,7.40
2018-12-21T10:33:37.916Z,7.60
2018-12-21T10:36:05.909Z,7.50
2018-12-21T10:38:33.384Z,7.60
2018-12-21T10:41:00.907Z,7.60
2018-12-21T10:43:28.452Z,7.60
2018-12-21T10:45:56.011Z,7.50
2018-12-21T10:48:23.536Z,7.60
2018-12-21T10:50:51.065Z,7.60
2018-12-21T10:53:18.655Z,7.70
2018-12-21T10:55:46.240Z,7.80
2018-12-21T10:58:13.754Z,7.70
2018-12-21T11:00:41.279Z,7.70
2018-12-21T11:03:08.804Z,7.80
2018-12-21T11:05:36.377Z,7.90
2018-12-21T11:08:03.972Z,8.00
2018-12-21T11:10:31.478Z,8.10
2018-12-21T11:12:58.999Z,8.10
2018-12-21T11:15:26.522Z,8.10
2018-12-21T11:17:55.140Z,8.20
2018-12-21T11:20:22.689Z,8.20
2018-12-21T11:22:50.330Z,8.30
2018-12-21T11:25:17.970Z,8.30
2018-12-21T11:27:45.521Z,8.20
2018-12-21T11:30:13.229Z,8.20
2018-12-21T11:32:40.913Z,8.20
2018-12-21T11:35:08.500Z,8.30
2018-12-21T11:37:36.064Z,8.50
2018-12-21T11:40:04.015Z,8.50
2018-12-21T11:42:31.742Z,8.80
2018-12-21T11:44:59.371Z,8.70
2018-12-21T11:47:26.868Z,8.70
2018-12-21T11:49:54.408Z,8.90
2018-12-21T11:52:22.020Z,8.90
2018-12-21T11:54:49.544Z,9.00
2018-12-21T11:57:17.136Z,8.90
2018-12-21T11:59:45.105Z,8.90
2018-12-21T12:02:19.452Z,8.80
2018-12-21T12:04:42.662Z,8.70
2018-12-21T12:07:10.215Z,8.80
2018-12-21T12:09:37.704Z,9.00
2018-12-21T12:12:05.394Z,9.00
2018-12-21T12:14:33.156Z,8.90
2018-12-21T12:17:00.686Z,8.90
2018-12-21T12:19:28.219Z,9.00
2018-12-21T12:21:55.805Z,9.10
2018-12-21T12:24:23.345Z,9.20
2018-12-21T12:26:50.997Z,9.00
2018-12-21T12:29:18.758Z,9.10
2018-12-21T12:31:46.385Z,9.00
2018-12-21T12:34:14.171Z,9.10
2018-12-21T12:36:41.695Z,9.10
2018-12-21T12:39:09.558Z,8.90
2018-12-21T12:41:37.168Z,9.00
2018-12-21T12:44:04.828Z,9.00
2018-12-21T12:46:32.464Z,9.10
2018-12-21T12:49:00.028Z,9.10
2018-12-21T12:51:27.658Z,9.00
2018-12-21T12:53:55.223Z,8.90
2018-12-21T12:56:23.366Z,8.80
2018-12-21T12:58:52.008Z,8.90
2018-12-21T13:01:19.742Z,8.90
2018-12-21T13:03:47.468Z,8.90
2018-12-21T13:06:17.602Z,8.80
2018-12-21T13:08:45.294Z,8.90
2018-12-21T13:11:12.836Z,8.70
2018-12-21T13:13:40.496Z,8.60
2018-12-21T13:16:08.108Z,8.60
2018-12-21T13:18:35.797Z,8.60
2018-12-21T13:21:03.532Z,8.60
2018-12-21T13:23:31.104Z,8.60
2018-12-21T13:25:58.804Z,8.60
2018-12-21T13:28:26.419Z,8.60
2018-12-21T13:30:53.971Z,8.60
2018-12-21T13:33:21.541Z,8.60
2018-12-21T13:35:49.197Z,8.50
2018-12-21T13:38:16.850Z,8.50
2018-12-21T13:40:44.518Z,8.50
2018-12-21T13:43:12.108Z,8.60
2018-12-21T13:45:39.641Z,8.60
2018-12-21T13:48:07.322Z,8.70
2018-12-21T13:50:34.894Z,8.70
2018-12-21T13:53:02.468Z,8.70
2018-12-21T13:55:30.042Z,8.70
2018-12-21T13:57:57.643Z,8.70
2018-12-21T14:00:25.290Z,8.60
2018-12-21T14:02:52.859Z,8.50
2018-12-21T14:05:20.450Z,8.60
2018-12-21T14:07:48.038Z,8.60
2018-12-21T14:10:15.674Z,8.60
2018-12-21T14:12:43.231Z,8.70
2018-12-21T14:15:10.972Z,8.90
2018-12-21T14:17:38.535Z,9.00
2018-12-21T14:20:09.262Z,8.90
2018-12-21T14:22:37.024Z,8.80
2018-12-21T14:25:04.985Z,8.90
2018-12-21T14:27:32.670Z,8.90
2018-12-21T14:30:00.282Z,8.80
2018-12-21T14:32:27.901Z,9.00
2018-12-21T14:34:55.409Z,8.90
2018-12-21T14:37:22.990Z,8.90
2018-12-21T14:39:50.558Z,8.90
2018-12-21T14:42:18.092Z,9.00
2018-12-21T14:44:45.699Z,9.00
2018-12-21T14:47:13.274Z,8.90
2018-12-21T14:49:40.793Z,9.00
2018-12-21T14:52:08.352Z,8.90
2018-12-21T14:54:35.935Z,9.00
2018-12-21T14:57:03.490Z,9.10
2018-12-21T14:59:31.035Z,9.10
2018-12-21T15:01:58.639Z,9.00
2018-12-21T15:04:26.176Z,8.90
2018-12-21T15:06:53.684Z,9.00
2018-12-21T15:09:21.425Z,9.00
2018-12-21T15:11:49.030Z,9.10
2018-12-21T15:14:16.624Z,9.10
2018-12-21T15:16:44.282Z,9.10
2018-12-21T15:19:11.932Z,9.20
2018-12-21T15:21:39.553Z,9.10
2018-12-21T15:24:07.213Z,9.20
2018-12-21T15:26:34.791Z,9.20
2018-12-21T15:29:02.602Z,9.20
2018-12-21T15:31:30.318Z,9.20
2018-12-21T15:33:57.943Z,9.20
2018-12-21T15:36:25.516Z,9.10
2018-12-21T15:38:53.242Z,9.20
2018-12-21T15:41:20.822Z,9.30
2018-12-21T15:43:48.427Z,9.20
2018-12-21T15:46:16.024Z,9.30
2018-12-21T15:48:43.579Z,9.40
2018-12-21T15:51:11.198Z,9.30
2018-12-21T15:53:38.689Z,9.20
2018-12-21T15:56:06.404Z,9.20
2018-12-21T15:58:33.959Z,9.20
2018-12-21T16:01:01.772Z,9.20
2018-12-21T16:03:29.341Z,9.30
2018-12-21T16:05:56.888Z,9.40
2018-12-21T16:08:24.464Z,9.30
2018-12-21T16:10:52.012Z,9.40
2018-12-21T16:13:19.596Z,9.40
2018-12-21T16:15:47.110Z,9.40
2018-12-21T16:18:14.718Z,9.40
2018-12-21T16:20:42.262Z,9.40
2018-12-21T16:23:09.759Z,9.40
2018-12-21T16:25:37.312Z,9.30
2018-12-21T16:28:04.905Z,9.40
2018-12-21T16:30:33.708Z,9.40
2018-12-21T16:33:01.959Z,9.50
2018-12-21T16:35:29.747Z,9.50
2018-12-21T16:37:57.906Z,9.40
2018-12-21T16:40:25.512Z,9.40
2018-12-21T16:42:53.019Z,9.50
2018-12-21T16:45:20.818Z,9.50
2018-12-21T16:47:48.348Z,9.60
2018-12-21T16:50:15.913Z,9.50
2018-12-21T16:52:43.470Z,9.80
2018-12-21T16:55:11.042Z,9.80
2018-12-21T16:57:38.547Z,9.80
2018-12-21T17:00:10.054Z,9.70
2018-12-21T17:02:37.575Z,9.80
2018-12-21T17:05:07.415Z,9.80
2018-12-21T17:07:34.964Z,9.60
2018-12-21T17:10:02.853Z,9.80
2018-12-21T17:12:30.387Z,9.80
2018-12-21T17:14:57.930Z,9.80
2018-12-21T17:17:25.451Z,9.70
2018-12-21T17:19:53.965Z,9.70
2018-12-21T17:22:21.497Z,9.70
2018-12-21T17:24:49.153Z,9.70
2018-12-21T17:27:16.865Z,9.70
2018-12-21T17:29:44.398Z,9.70
2018-12-21T17:32:11.955Z,9.80
2018-12-21T17:34:39.463Z,9.80
2018-12-21T17:37:07.964Z,9.80
2018-12-21T17:39:35.473Z,9.80
2018-12-21T17:42:03.327Z,9.80
2018-12-21T17:44:30.971Z,9.90
2018-12-21T17:46:58.532Z,9.90
2018-12-21T17:49:26.081Z,9.90
2018-12-21T17:52:01.213Z,9.90
2018-12-21T17:54:23.238Z,9.90
2018-12-21T17:56:50.759Z,9.90
2018-12-21T17:59:18.314Z,9.90
2018-12-21T18:01:45.873Z,10.00
2018-12-21T18:04:19.324Z,9.90
2018-12-21T18:06:46.859Z,9.90
2018-12-21T18:09:14.394Z,9.90
2018-12-21T18:11:41.981Z,10.10
2018-12-21T18:14:09.518Z,10.20
2018-12-21T18:16:37.078Z,10.20
2018-12-21T18:19:04.627Z,10.10
2018-12-21T18:21:43.224Z,10.10
2018-12-21T18:24:10.872Z,10.10
2018-12-21T18:26:38.674Z,10.20
2018-12-21T18:29:06.937Z,10.20
2018-12-21T18:31:42.925Z,10.40
2018-12-21T18:34:14.179Z,10.50
2018-12-21T18:36:41.701Z,10.40
2018-12-21T18:39:09.327Z,10.20
2018-12-21T18:41:36.835Z,10.20
2018-12-21T18:44:04.379Z,10.30
2018-12-21T18:46:32.006Z,10.30
2018-12-21T18:48:59.623Z,10.30
2018-12-21T18:51:27.213Z,10.20
2018-12-21T18:53:54.740Z,10.20
2018-12-21T18:56:24.788Z,10.20
2018-12-21T18:58:52.457Z,10.10
2018-12-21T19:01:20.099Z,10.20
2018-12-21T19:03:47.862Z,10.20
2018-12-21T19:06:15.476Z,10.20
2018-12-21T19:08:43.080Z,10.30
2018-12-21T19:11:10.873Z,10.20
2018-12-21T19:13:38.471Z,10.20
2018-12-21T19:16:06.104Z,10.20
2018-12-21T19:18:33.692Z,10.30
2018-12-21T19:21:01.308Z,10.30
2018-12-21T19:23:28.871Z,10.30
2018-12-21T19:25:56.423Z,10.30
2018-12-21T19:28:23.970Z,10.20
2018-12-21T19:30:51.478Z,10.30
2018-12-21T19:33:19.094Z,10.30
2018-12-21T19:35:47.114Z,10.30
2018-12-21T19:38:14.651Z,10.20
2018-12-21T19:40:42.241Z,10.30
2018-12-21T19:43:09.916Z,10.40
2018-12-21T19:45:37.508Z,10.30
2018-12-21T19:48:05.230Z,10.30
2018-12-21T19:50:32.919Z,10.40
2018-12-21T19:53:02.490Z,10.60
2018-12-21T19:55:40.089Z,10.50
2018-12-21T19:58:07.664Z,10.40
2018-12-21T20:00:35.373Z,10.40
2018-12-21T20:03:03.097Z,10.40
2018-12-21T20:05:30.711Z,10.40
2018-12-21T20:07:58.456Z,10.50
2018-12-21T20:10:26.186Z,10.40
2018-12-21T20:12:53.769Z,10.50
2018-12-21T20:15:21.363Z,10.40
2018-12-21T20:17:49.045Z,10.40
2018-12-21T20:20:16.732Z,10.30
2018-12-21T20:22:44.398Z,10.40
2018-12-21T20:25:11.999Z,10.40
2018-12-21T20:27:40.307Z,10.40
2018-12-21T20:30:11.182Z,10.50
2018-12-21T20:32:38.824Z,10.50
2018-12-21T20:35:07.297Z,10.60
2018-12-21T20:37:34.959Z,10.60
2018-12-21T20:40:02.636Z,10.60
2018-12-21T20:42:30.770Z,10.60
2018-12-21T20:44:58.410Z,10.50
2018-12-21T20:47:25.940Z,10.60
2018-12-21T20:49:53.513Z,10.60
2018-12-21T20:52:21.109Z,10.60
2018-12-21T20:54:48.741Z,10.60
2018-12-21T20:57:21.789Z,10.50
2018-12-21T20:59:47.495Z,10.60
2018-12-21T21:02:15.099Z,10.60
2018-12-21T21:04:42.795Z,10.40
2018-12-21T21:07:10.386Z,10.20
2018-12-21T21:09:38.083Z,10.20
2018-12-21T21:12:05.729Z,10.40
2018-12-21T21:14:34.041Z,10.30
2018-12-21T21:17:01.912Z,10.30
2018-12-21T21:19:33.500Z,10.30
2018-12-21T21:22:01.098Z,10.40
2018-12-21T21:24:28.684Z,10.50
2018-12-21T21:26:56.271Z,10.50
2018-12-21T21:29:23.776Z,10.50
2018-12-21T21:31:51.458Z,10.30
2018-12-21T21:34:19.106Z,10.30
2018-12-21T21:36:46.672Z,10.30
2018-12-21T21:39:14.236Z,10.40
2018-12-21T21:41:41.864Z,10.50
2018-12-21T21:44:09.710Z,10.40
2018-12-21T21:46:37.404Z,10.40
2018-12-21T21:49:05.020Z,10.50
2018-12-21T21:51:32.786Z,10.60
2018-12-21T21:54:00.274Z,10.50
2018-12-21T21:56:27.766Z,10.50
2018-12-21T21:58:55.408Z,10.40
2018-12-21T22:01:23.074Z,10.30
2018-12-21T22:03:50.702Z,10.40
2018-12-21T22:06:18.294Z,10.30
2018-12-21T22:08:45.938Z,10.30
2018-12-21T22:11:13.518Z,10.30
2018-12-21T22:13:41.114Z,10.20
2018-12-21T22:16:08.768Z,10.10
2018-12-21T22:18:36.325Z,10.20
2018-12-21T22:21:04.091Z,10.30
2018-12-21T22:23:31.696Z,10.30
2018-12-21T22:25:59.531Z,10.40
2018-12-21T22:28:27.101Z,10.40
2018-12-21T22:30:54.695Z,10.40
2018-12-21T22:33:22.290Z,10.60
2018-12-21T22:35:49.969Z,10.40
2018-12-21T22:38:17.708Z,10.50
2018-12-21T22:40:45.315Z,10.40
2018-12-21T22:43:12.951Z,10.40
2018-12-21T22:45:40.510Z,10.40
2018-12-21T22:48:08.094Z,10.50
2018-12-21T22:50:35.771Z,10.30
2018-12-21T22:53:03.297Z,10.30
2018-12-21T22:55:30.897Z,10.30
2018-12-21T22:57:58.474Z,10.30
2018-12-21T23:00:38.350Z,10.20
2018-12-21T23:03:06.017Z,10.40
2018-12-21T23:05:33.570Z,10.40
2018-12-21T23:08:01.380Z,10.40
2018-12-21T23:10:28.970Z,10.30
2018-12-21T23:12:56.505Z,10.30
2018-12-21T23:15:24.077Z,10.30
2018-12-21T23:17:51.654Z,10.30
2018-12-21T23:20:19.203Z,10.20
2018-12-21T23:22:46.730Z,10.40
2018-12-21T23:25:14.286Z,10.50
2018-12-21T23:27:42.336Z,10.50
2018-12-21T23:30:10.020Z,10.50
2018-12-21T23:32:37.564Z,10.70
2018-12-21T23:35:06.269Z,10.60
2018-12-21T23:37:34.421Z,10.50
2018-12-21T23:40:02.107Z,10.50
2018-12-21T23:42:29.654Z,10.60
2018-12-21T23:44:57.240Z,10.50
2018-12-21T23:47:24.792Z,10.50
2018-12-21T23:49:52.395Z,10.50
2018-12-21T23:52:20.020Z,10.50
2018-12-21T23:54:48.441Z,10.60
2018-12-21T23:57:16.011Z,10.60
2018-12-21T23:59:43.505Z,10.60
